createdAt,value
2023-05-25T00:00:16.814Z,4.00
2023-05-25T00:03:04.098Z,4.85
2023-05-25T00:05:31.214Z,5.47
2023-05-25T00:07:58.327Z,3.88
2023-05-25T00:10:25.063Z,4.85
2023-05-25T00:12:52.117Z,3.88
2023-05-25T00:15:19.082Z,5.22
2023-05-25T00:17:49.073Z,4.90
2023-05-25T00:20:16.266Z,7.00
2023-05-25T00:22:44.984Z,3.88
2023-05-25T00:25:12.095Z,4.32
2023-05-25T00:27:39.149Z,3.88
2023-05-25T00:30:06.856Z,4.07
2023-05-25T00:32:34.167Z,4.07
2023-05-25T00:35:01.253Z,4.65
2023-05-25T00:37:28.286Z,4.90
2023-05-25T00:39:55.074Z,4.22
2023-05-25T00:42:22.171Z,4.25
2023-05-25T00:44:49.067Z,4.97
2023-05-25T00:47:16.939Z,4.65
2023-05-25T00:49:43.697Z,4.13
2023-05-25T00:52:11.960Z,4.45
2023-05-25T00:54:39.220Z,3.83
2023-05-25T00:57:07.350Z,5.05
2023-05-25T00:59:46.716Z,4.45
2023-05-25T01:02:17.064Z,5.50
2023-05-25T01:04:45.613Z,3.83
2023-05-25T01:07:17.739Z,4.70
2023-05-25T01:09:44.966Z,4.57
2023-05-25T01:12:12.123Z,5.13
2023-05-25T01:14:40.575Z,4.28
2023-05-25T01:17:08.499Z,4.28
2023-05-25T01:19:36.335Z,5.10
2023-05-25T01:22:05.430Z,3.67
2023-05-25T01:24:33.976Z,5.47
2023-05-25T01:27:01.737Z,4.20
2023-05-25T01:29:28.595Z,5.05
2023-05-25T01:31:55.688Z,4.85
2023-05-25T01:34:22.539Z,5.20
2023-05-25T01:36:49.783Z,4.93
2023-05-25T01:39:16.540Z,10.45
2023-05-25T01:41:43.621Z,7.65
2023-05-25T01:44:10.477Z,5.45
2023-05-25T01:46:38.802Z,3.90
2023-05-25T01:49:24.560Z,4.93
2023-05-25T01:52:18.608Z,5.00
2023-05-25T01:54:48.232Z,6.70
2023-05-25T01:57:16.067Z,6.40
2023-05-25T01:59:43.466Z,3.95
2023-05-25T02:02:10.687Z,4.55
2023-05-25T02:04:37.417Z,4.60
2023-05-25T02:07:05.115Z,5.30
2023-05-25T02:09:31.944Z,5.00
2023-05-25T02:11:59.056Z,5.03
2023-05-25T02:14:25.928Z,8.32
2023-05-25T02:16:53.308Z,4.78
2023-05-25T02:19:20.169Z,5.63
2023-05-25T02:21:47.309Z,4.20
2023-05-25T02:24:14.252Z,4.30
2023-05-25T02:26:41.464Z,4.95
2023-05-25T02:29:08.288Z,7.38
2023-05-25T02:31:35.615Z,5.18
2023-05-25T02:34:03.167Z,5.45
2023-05-25T02:36:30.318Z,5.38
2023-05-25T02:38:57.108Z,8.02
2023-05-25T02:41:26.294Z,9.48
2023-05-25T02:43:53.764Z,7.30
2023-05-25T02:46:20.964Z,6.32
2023-05-25T02:48:47.753Z,6.90
2023-05-25T02:51:14.822Z,5.68
2023-05-25T02:53:41.874Z,4.93
2023-05-25T02:56:10.435Z,7.25
2023-05-25T02:58:38.549Z,5.75
2023-05-25T03:01:06.201Z,5.47
2023-05-25T03:03:33.094Z,6.38
2023-05-25T03:06:00.160Z,5.95
2023-05-25T03:08:26.902Z,5.75
2023-05-25T03:10:53.972Z,6.68
2023-05-25T03:13:20.914Z,4.88
2023-05-25T03:15:47.976Z,6.43
2023-05-25T03:18:14.748Z,5.07
2023-05-25T03:20:41.891Z,6.53
2023-05-25T03:23:08.698Z,5.13
2023-05-25T03:25:35.773Z,5.50
2023-05-25T03:28:02.538Z,6.30
2023-05-25T03:30:30.568Z,4.93
2023-05-25T03:32:57.380Z,5.72
2023-05-25T03:35:24.672Z,4.38
2023-05-25T03:37:51.386Z,6.07
2023-05-25T03:40:18.525Z,7.47
2023-05-25T03:42:45.264Z,7.50
2023-05-25T03:45:12.301Z,5.90
2023-05-25T03:47:39.086Z,6.38
2023-05-25T03:50:09.572Z,4.35
2023-05-25T03:52:36.359Z,7.85
2023-05-25T03:55:05.213Z,6.57
2023-05-25T03:57:32.003Z,6.32
2023-05-25T03:59:59.127Z,7.72
2023-05-25T04:02:26.073Z,5.88
2023-05-25T04:04:53.581Z,5.53
2023-05-25T04:07:20.660Z,6.15
2023-05-25T04:09:47.795Z,11.70
2023-05-25T04:12:14.526Z,6.53
2023-05-25T04:14:42.720Z,8.40
2023-05-25T04:17:09.695Z,5.22
2023-05-25T04:19:36.807Z,7.15
2023-05-25T04:22:04.418Z,8.40
2023-05-25T04:24:32.646Z,7.93
2023-05-25T04:26:59.707Z,6.00
2023-05-25T04:29:27.081Z,8.80
2023-05-25T04:31:54.768Z,13.70
2023-05-25T04:34:21.825Z,9.25
2023-05-25T04:36:49.492Z,6.60
2023-05-25T04:39:16.628Z,8.88
2023-05-25T04:41:43.749Z,6.97
2023-05-25T04:44:10.878Z,7.75
2023-05-25T04:46:39.093Z,9.38
2023-05-25T04:49:08.415Z,11.45
2023-05-25T04:51:36.071Z,11.23
2023-05-25T04:54:03.303Z,11.30
2023-05-25T04:56:30.043Z,11.68
2023-05-25T04:58:57.133Z,9.82
2023-05-25T05:01:24.101Z,10.45
2023-05-25T05:03:51.472Z,10.00
2023-05-25T05:06:18.398Z,8.13
2023-05-25T05:08:45.469Z,10.35
2023-05-25T05:11:12.216Z,10.02
2023-05-25T05:13:39.295Z,9.07
2023-05-25T05:16:06.632Z,7.75
2023-05-25T05:18:33.693Z,8.40
2023-05-25T05:21:00.537Z,10.30
2023-05-25T05:23:27.683Z,10.15
2023-05-25T05:25:54.419Z,12.07
2023-05-25T05:28:21.605Z,9.93
2023-05-25T05:30:48.437Z,14.05
2023-05-25T05:33:15.863Z,8.95
2023-05-25T05:35:43.020Z,11.27
2023-05-25T05:38:10.222Z,10.00
2023-05-25T05:40:37.007Z,11.35
2023-05-25T05:43:04.096Z,8.10
2023-05-25T05:45:30.874Z,11.43
2023-05-25T05:47:57.963Z,10.57
2023-05-25T05:50:24.760Z,7.53
2023-05-25T05:52:53.658Z,9.52
2023-05-25T05:55:21.099Z,11.25
2023-05-25T05:57:48.296Z,11.57
2023-05-25T06:00:16.271Z,11.40
2023-05-25T06:02:43.524Z,9.60
2023-05-25T06:05:10.634Z,11.05
2023-05-25T06:07:38.488Z,9.98
2023-05-25T06:10:05.993Z,10.50
2023-05-25T06:12:33.026Z,12.45
2023-05-25T06:14:59.801Z,8.60
2023-05-25T06:17:28.163Z,10.13
2023-05-25T06:19:55.392Z,8.65
2023-05-25T06:22:24.023Z,10.38
2023-05-25T06:24:50.788Z,9.80
2023-05-25T06:27:17.836Z,10.60
2023-05-25T06:29:44.591Z,10.02
2023-05-25T06:32:11.730Z,11.10
2023-05-25T06:34:38.889Z,9.95
2023-05-25T06:37:07.082Z,9.48
2023-05-25T06:39:33.941Z,10.85
2023-05-25T06:42:01.700Z,12.60
2023-05-25T06:44:28.482Z,10.15
2023-05-25T06:46:55.531Z,11.40
2023-05-25T06:49:22.304Z,8.95
2023-05-25T06:51:51.230Z,8.48
2023-05-25T06:54:19.600Z,11.20
2023-05-25T06:56:46.827Z,9.15
2023-05-25T06:59:13.630Z,10.35
2023-05-25T07:01:41.189Z,8.25
2023-05-25T07:04:08.007Z,7.97
2023-05-25T07:06:35.073Z,7.97
2023-05-25T07:09:01.888Z,9.13
2023-05-25T07:11:28.936Z,8.32
2023-05-25T07:13:55.686Z,8.63
2023-05-25T07:16:22.796Z,10.98
2023-05-25T07:18:49.628Z,7.90
2023-05-25T07:21:17.375Z,8.60
2023-05-25T07:23:44.148Z,8.68
2023-05-25T07:26:11.322Z,7.35
2023-05-25T07:28:38.123Z,7.07
2023-05-25T07:31:05.260Z,7.55
2023-05-25T07:33:32.088Z,6.80
2023-05-25T07:35:59.164Z,7.47
2023-05-25T07:38:25.990Z,6.93
2023-05-25T07:40:53.150Z,7.22
2023-05-25T07:43:20.052Z,6.55
2023-05-25T07:45:47.265Z,9.85
2023-05-25T07:48:14.263Z,7.18
2023-05-25T07:50:41.464Z,8.82
2023-05-25T07:53:08.331Z,8.70
2023-05-25T07:55:35.465Z,9.93
2023-05-25T07:58:02.263Z,6.88
2023-05-25T08:00:29.689Z,7.68
2023-05-25T08:02:56.882Z,9.65
2023-05-25T08:05:24.130Z,8.30
2023-05-25T08:07:50.877Z,9.80
2023-05-25T08:10:17.988Z,8.30
2023-05-25T08:12:49.736Z,6.70
2023-05-25T08:15:17.906Z,7.15
2023-05-25T08:17:45.073Z,9.02
2023-05-25T08:20:12.599Z,8.80
2023-05-25T08:22:39.444Z,7.35
2023-05-25T08:25:06.976Z,6.70
2023-05-25T08:27:35.672Z,9.48
2023-05-25T08:30:05.852Z,7.53
2023-05-25T08:32:32.672Z,7.75
2023-05-25T08:34:59.761Z,7.15
2023-05-25T08:37:26.536Z,5.90
2023-05-25T08:39:53.561Z,7.53
2023-05-25T08:42:21.004Z,6.03
2023-05-25T08:44:48.153Z,6.55
2023-05-25T08:47:15.424Z,5.45
2023-05-25T08:49:42.589Z,6.07
2023-05-25T08:52:11.386Z,5.18
2023-05-25T08:54:38.542Z,5.60
2023-05-25T08:57:16.209Z,4.75
2023-05-25T08:59:58.473Z,5.00
2023-05-25T09:02:43.613Z,5.38
2023-05-25T09:05:10.769Z,4.90
2023-05-25T09:07:37.577Z,5.72
2023-05-25T09:10:05.183Z,5.70
2023-05-25T09:12:32.054Z,6.35
2023-05-25T09:14:59.318Z,5.47
2023-05-25T09:17:26.843Z,5.10
2023-05-25T09:19:54.351Z,5.47
2023-05-25T09:22:21.188Z,4.18
2023-05-25T09:24:48.282Z,5.00
2023-05-25T09:27:19.301Z,5.68
2023-05-25T09:29:49.963Z,4.93
2023-05-25T09:32:17.570Z,5.47
2023-05-25T09:34:48.014Z,6.28
2023-05-25T09:37:16.479Z,4.55
2023-05-25T09:39:44.129Z,5.40
2023-05-25T09:42:11.610Z,5.32
2023-05-25T09:44:39.512Z,6.03
2023-05-25T09:47:06.509Z,5.18
2023-05-25T09:49:33.632Z,5.55
2023-05-25T09:52:00.723Z,5.55
2023-05-25T09:54:27.800Z,5.47
2023-05-25T09:56:54.646Z,6.55
2023-05-25T09:59:24.698Z,5.50
2023-05-25T10:01:52.258Z,6.20
2023-05-25T10:04:19.422Z,5.30
2023-05-25T10:06:46.988Z,5.78
2023-05-25T10:09:14.652Z,6.05
2023-05-25T10:11:41.438Z,5.82
2023-05-25T10:14:08.869Z,6.35
2023-05-25T10:16:36.419Z,6.07
2023-05-25T10:19:06.987Z,7.88
2023-05-25T10:21:33.797Z,9.02
2023-05-25T10:24:05.016Z,6.40
2023-05-25T10:26:33.967Z,5.22
2023-05-25T10:29:04.685Z,7.40
2023-05-25T10:31:34.060Z,7.68
2023-05-25T10:34:01.303Z,6.68
2023-05-25T10:36:28.145Z,5.95
2023-05-25T10:38:55.182Z,5.68
2023-05-25T10:41:22.052Z,6.78
2023-05-25T10:43:49.128Z,8.32
2023-05-25T10:46:16.476Z,7.03
2023-05-25T10:48:51.780Z,7.20
2023-05-25T10:51:21.979Z,7.82
2023-05-25T10:53:59.116Z,7.38
2023-05-25T10:56:26.405Z,7.75
2023-05-25T10:58:53.729Z,8.90
2023-05-25T11:01:20.848Z,10.10
2023-05-25T11:03:48.689Z,8.32
2023-05-25T11:06:16.501Z,8.73
2023-05-25T11:08:59.886Z,10.55
2023-05-25T11:11:45.522Z,9.43
2023-05-25T11:14:21.981Z,10.40
2023-05-25T11:17:11.653Z,9.93
2023-05-25T11:19:41.510Z,11.10
2023-05-25T11:22:21.298Z,10.60
2023-05-25T11:24:49.222Z,9.85
2023-05-25T11:27:16.054Z,11.00
2023-05-25T11:29:43.670Z,11.43
2023-05-25T11:32:14.469Z,11.40
2023-05-25T11:34:42.084Z,10.98
2023-05-25T11:37:11.077Z,12.20
2023-05-25T11:39:39.629Z,11.25
2023-05-25T11:42:11.185Z,10.65
2023-05-25T11:44:39.165Z,13.93
2023-05-25T11:47:13.404Z,12.55
2023-05-25T11:49:42.061Z,12.48
2023-05-25T11:52:09.087Z,13.27
2023-05-25T11:54:36.463Z,14.07
2023-05-25T11:57:03.774Z,16.85
2023-05-25T11:59:32.658Z,14.32
2023-05-25T12:02:00.759Z,15.00
2023-05-25T12:04:28.788Z,17.33
2023-05-25T12:07:06.799Z,14.93
2023-05-25T12:09:34.424Z,13.77
2023-05-25T12:12:01.518Z,15.30
2023-05-25T12:14:28.625Z,18.23
2023-05-25T12:16:55.957Z,17.17
2023-05-25T12:19:23.128Z,16.30
2023-05-25T12:21:51.588Z,16.52
2023-05-25T12:24:18.865Z,16.40
2023-05-25T12:26:49.751Z,16.95
2023-05-25T12:29:16.929Z,16.50
2023-05-25T12:31:43.848Z,17.60
2023-05-25T12:34:14.026Z,14.88
2023-05-25T12:36:53.349Z,14.48
2023-05-25T12:39:29.650Z,13.85
2023-05-25T12:42:00.234Z,14.45
2023-05-25T12:44:31.480Z,14.25
2023-05-25T12:47:23.476Z,12.77
2023-05-25T12:49:52.216Z,14.30
2023-05-25T12:52:38.311Z,13.35
2023-05-25T12:55:28.094Z,13.52
2023-05-25T12:57:55.793Z,12.68
2023-05-25T13:00:24.087Z,12.95
2023-05-25T13:02:53.639Z,13.63
2023-05-25T13:05:25.168Z,14.52
2023-05-25T13:07:53.719Z,12.93
2023-05-25T13:10:21.203Z,12.75
2023-05-25T13:12:48.825Z,15.23
2023-05-25T13:15:18.733Z,13.95
2023-05-25T13:17:45.552Z,12.88
2023-05-25T13:20:16.239Z,13.10
2023-05-25T13:22:43.647Z,15.20
2023-05-25T13:25:11.564Z,11.63
2023-05-25T13:27:38.371Z,13.73
2023-05-25T13:30:08.700Z,11.85
2023-05-25T13:32:35.758Z,11.80
2023-05-25T13:35:04.619Z,10.68
2023-05-25T13:37:33.358Z,12.60
2023-05-25T13:40:00.714Z,11.48
2023-05-25T13:42:27.888Z,11.50
2023-05-25T13:44:54.904Z,11.38
2023-05-25T13:47:22.111Z,10.05
2023-05-25T13:49:49.035Z,12.57
2023-05-25T13:52:16.222Z,12.45
2023-05-25T13:54:42.982Z,10.93
2023-05-25T13:57:10.053Z,10.02
2023-05-25T13:59:37.633Z,11.35
2023-05-25T14:02:04.879Z,11.93
2023-05-25T14:04:31.740Z,10.45
2023-05-25T14:06:59.440Z,10.05
2023-05-25T14:09:26.279Z,9.13
2023-05-25T14:11:53.774Z,9.25
2023-05-25T14:14:31.314Z,9.98
2023-05-25T14:17:01.171Z,9.75
2023-05-25T14:19:28.559Z,9.10
2023-05-25T14:22:11.965Z,12.05
2023-05-25T14:24:40.593Z,9.30
2023-05-25T14:27:07.693Z,9.13
2023-05-25T14:29:34.782Z,10.75
2023-05-25T14:32:02.029Z,11.23
2023-05-25T14:34:29.482Z,11.30
2023-05-25T14:36:56.787Z,9.20
2023-05-25T14:39:23.658Z,8.98
2023-05-25T14:41:50.878Z,11.05
2023-05-25T14:44:17.787Z,8.85
2023-05-25T14:46:45.116Z,9.18
2023-05-25T14:49:13.690Z,10.05
2023-05-25T14:51:41.461Z,8.45
2023-05-25T14:54:08.854Z,8.82
2023-05-25T14:56:36.559Z,8.52
2023-05-25T14:59:03.283Z,9.35
2023-05-25T15:01:30.364Z,10.00
2023-05-25T15:03:57.292Z,9.20
2023-05-25T15:06:24.477Z,8.95
2023-05-25T15:08:51.261Z,8.93
2023-05-25T15:11:18.503Z,9.13
2023-05-25T15:13:45.385Z,8.68
2023-05-25T15:16:13.256Z,9.30
2023-05-25T15:18:40.100Z,9.32
2023-05-25T15:21:07.281Z,10.95
2023-05-25T15:23:34.109Z,9.07
2023-05-25T15:26:04.253Z,9.07
2023-05-25T15:28:31.549Z,9.30
2023-05-25T15:31:01.610Z,10.45
2023-05-25T15:33:43.621Z,9.07
2023-05-25T15:36:17.097Z,9.30
2023-05-25T15:38:44.559Z,9.88
2023-05-25T15:41:12.771Z,8.65
2023-05-25T15:43:39.670Z,9.35
2023-05-25T15:46:06.808Z,8.30
2023-05-25T15:48:33.666Z,9.82
2023-05-25T15:51:00.998Z,9.38
2023-05-25T15:53:27.760Z,9.55
2023-05-25T15:55:54.850Z,9.18
2023-05-25T15:58:21.596Z,9.52
2023-05-25T16:00:48.667Z,8.93
2023-05-25T16:03:15.536Z,10.20
2023-05-25T16:05:42.806Z,9.55
2023-05-25T16:08:11.705Z,9.60
2023-05-25T16:10:38.768Z,9.10
2023-05-25T16:13:05.516Z,8.65
2023-05-25T16:15:33.078Z,8.43
2023-05-25T16:18:01.303Z,9.43
2023-05-25T16:20:28.635Z,8.27
2023-05-25T16:22:55.459Z,8.45
2023-05-25T16:25:22.642Z,11.23
2023-05-25T16:27:49.460Z,8.68
2023-05-25T16:30:16.563Z,8.60
2023-05-25T16:32:43.435Z,7.72
2023-05-25T16:35:10.508Z,8.07
2023-05-25T16:37:37.273Z,8.02
2023-05-25T16:40:04.606Z,8.68
2023-05-25T16:42:31.370Z,7.80
2023-05-25T16:44:58.545Z,9.18
2023-05-25T16:47:25.508Z,8.52
2023-05-25T16:49:52.579Z,8.35
2023-05-25T16:52:19.424Z,8.40
2023-05-25T16:54:46.536Z,9.60
2023-05-25T16:57:13.340Z,9.40
2023-05-25T16:59:40.986Z,9.40
2023-05-25T17:02:07.807Z,9.75
2023-05-25T17:04:34.864Z,8.60
2023-05-25T17:07:01.579Z,9.25
2023-05-25T17:09:28.690Z,8.02
2023-05-25T17:11:59.467Z,8.80
2023-05-25T17:14:26.882Z,8.30
2023-05-25T17:16:53.691Z,8.18
2023-05-25T17:19:20.799Z,9.20
2023-05-25T17:21:48.165Z,8.57
2023-05-25T17:24:15.414Z,8.02
2023-05-25T17:26:42.260Z,8.07
2023-05-25T17:29:09.334Z,8.82
2023-05-25T17:31:36.249Z,12.02
2023-05-25T17:34:03.412Z,8.80
2023-05-25T17:36:30.196Z,8.45
2023-05-25T17:38:57.374Z,8.23
2023-05-25T17:41:24.150Z,7.68
2023-05-25T17:43:51.232Z,8.32
2023-05-25T17:46:18.065Z,8.05
2023-05-25T17:48:45.763Z,8.82
2023-05-25T17:51:12.559Z,8.93
2023-05-25T17:53:39.634Z,7.97
2023-05-25T17:56:06.650Z,8.65
2023-05-25T17:58:33.697Z,7.70
2023-05-25T18:01:01.222Z,9.18
2023-05-25T18:03:28.631Z,7.68
2023-05-25T18:05:55.695Z,7.53
2023-05-25T18:08:22.882Z,8.05
2023-05-25T18:10:50.640Z,7.57
2023-05-25T18:13:17.834Z,8.20
2023-05-25T18:15:44.839Z,8.48
2023-05-25T18:18:14.685Z,9.00
2023-05-25T18:20:41.459Z,7.72
2023-05-25T18:23:08.734Z,8.32
2023-05-25T18:25:35.534Z,7.68
2023-05-25T18:28:02.664Z,8.70
2023-05-25T18:30:29.443Z,8.40
2023-05-25T18:32:56.487Z,7.90
2023-05-25T18:35:23.260Z,7.65
2023-05-25T18:37:50.305Z,9.65
2023-05-25T18:40:17.164Z,8.98
2023-05-25T18:42:44.230Z,8.30
2023-05-25T18:45:11.085Z,8.40
2023-05-25T18:47:38.463Z,8.85
2023-05-25T18:50:05.902Z,9.43
2023-05-25T18:52:32.993Z,8.50
2023-05-25T18:54:59.780Z,8.00
2023-05-25T18:57:27.048Z,8.23
2023-05-25T18:59:53.914Z,7.95
2023-05-25T19:02:21.396Z,8.80
2023-05-25T19:04:49.605Z,8.98
2023-05-25T19:07:16.725Z,8.40
2023-05-25T19:09:43.613Z,8.02
2023-05-25T19:12:10.776Z,8.35
2023-05-25T19:14:37.731Z,8.00
2023-05-25T19:17:04.970Z,8.75
2023-05-25T19:19:31.782Z,8.65
2023-05-25T19:21:58.884Z,8.18
2023-05-25T19:24:25.770Z,8.93
2023-05-25T19:26:52.852Z,8.15
2023-05-25T19:29:19.645Z,8.35
2023-05-25T19:31:46.692Z,8.50
2023-05-25T19:34:13.533Z,9.23
2023-05-25T19:36:40.778Z,8.75
2023-05-25T19:39:07.552Z,9.05
2023-05-25T19:41:36.450Z,8.57
2023-05-25T19:44:03.226Z,9.25
2023-05-25T19:46:30.718Z,9.05
2023-05-25T19:48:57.865Z,9.80
2023-05-25T19:51:24.941Z,10.93
2023-05-25T19:53:52.196Z,10.07
2023-05-25T19:56:19.255Z,9.60
2023-05-25T19:58:46.161Z,10.88
2023-05-25T20:01:13.358Z,9.68
2023-05-25T20:03:40.228Z,9.90
2023-05-25T20:06:07.369Z,9.30
2023-05-25T20:08:34.105Z,9.65
2023-05-25T20:11:02.691Z,9.35
2023-05-25T20:13:29.627Z,11.07
2023-05-25T20:15:56.794Z,10.23
2023-05-25T20:18:26.583Z,9.75
2023-05-25T20:20:53.669Z,11.70
2023-05-25T20:23:20.915Z,10.13
2023-05-25T20:25:48.043Z,11.25
2023-05-25T20:28:14.874Z,10.82
2023-05-25T20:30:42.094Z,10.23
2023-05-25T20:33:08.891Z,10.60
2023-05-25T20:35:36.615Z,10.57
2023-05-25T20:38:03.422Z,11.98
2023-05-25T20:40:30.680Z,13.40
2023-05-25T20:42:57.580Z,11.68
2023-05-25T20:45:24.789Z,11.23
2023-05-25T20:48:01.653Z,10.70
2023-05-25T20:50:28.962Z,11.55
2023-05-25T20:52:55.946Z,12.82
2023-05-25T20:55:23.179Z,10.93
2023-05-25T20:57:49.909Z,15.73
2023-05-25T21:00:17.136Z,11.35
2023-05-25T21:02:43.940Z,11.45
2023-05-25T21:05:11.116Z,11.90
2023-05-25T21:07:37.845Z,12.68
2023-05-25T21:10:05.686Z,13.82
2023-05-25T21:12:32.438Z,12.50
2023-05-25T21:14:59.472Z,13.35
2023-05-25T21:17:26.510Z,12.23
2023-05-25T21:19:53.717Z,14.10
2023-05-25T21:22:20.672Z,13.02
2023-05-25T21:24:48.000Z,14.45
2023-05-25T21:27:14.858Z,12.48
2023-05-25T21:29:42.167Z,13.13
2023-05-25T21:32:09.223Z,13.65
2023-05-25T21:34:36.334Z,15.32
2023-05-25T21:37:03.410Z,13.10
2023-05-25T21:39:30.593Z,12.45
2023-05-25T21:41:57.326Z,16.15
2023-05-25T21:44:24.422Z,13.82
2023-05-25T21:46:51.242Z,14.45
2023-05-25T21:49:18.510Z,14.90
2023-05-25T21:51:45.324Z,14.27
2023-05-25T21:54:12.400Z,14.15
2023-05-25T21:56:39.244Z,12.50
2023-05-25T21:59:06.331Z,13.35
2023-05-25T22:01:33.283Z,13.32
2023-05-25T22:04:00.455Z,12.25
2023-05-25T22:06:27.223Z,13.55
2023-05-25T22:08:54.345Z,13.65
2023-05-25T22:11:22.287Z,12.60
2023-05-25T22:13:49.365Z,13.90
2023-05-25T22:16:16.168Z,13.43
2023-05-25T22:18:43.296Z,14.48
2023-05-25T22:21:10.078Z,14.48
2023-05-25T22:23:37.309Z,14.63
2023-05-25T22:26:05.147Z,14.00
2023-05-25T22:28:32.307Z,14.43
2023-05-25T22:30:59.265Z,16.50
2023-05-25T22:33:26.430Z,14.88
2023-05-25T22:35:53.207Z,16.42
2023-05-25T22:38:20.515Z,13.43
2023-05-25T22:40:47.789Z,14.60
2023-05-25T22:43:15.021Z,15.20
2023-05-25T22:45:41.819Z,15.43
2023-05-25T22:48:09.003Z,14.18
2023-05-25T22:50:37.005Z,15.25
2023-05-25T22:53:04.582Z,13.20
2023-05-25T22:55:31.776Z,15.55
2023-05-25T22:57:58.851Z,13.15
2023-05-25T23:00:25.790Z,17.08
2023-05-25T23:02:52.930Z,15.60
2023-05-25T23:05:19.804Z,14.98
2023-05-25T23:07:46.987Z,16.08
2023-05-25T23:10:13.905Z,14.55
2023-05-25T23:12:41.051Z,16.42
2023-05-25T23:15:09.394Z,14.40
2023-05-25T23:17:36.498Z,16.33
2023-05-25T23:20:07.671Z,14.20
2023-05-25T23:22:34.824Z,17.00
2023-05-25T23:25:01.688Z,16.08
2023-05-25T23:27:28.748Z,13.50
2023-05-25T23:29:55.465Z,15.75
2023-05-25T23:32:22.565Z,14.75
2023-05-25T23:34:49.344Z,16.95
2023-05-25T23:37:16.553Z,16.88
2023-05-25T23:39:43.296Z,15.50
2023-05-25T23:42:12.156Z,14.70
2023-05-25T23:44:38.894Z,15.10
2023-05-25T23:47:06.265Z,15.25
2023-05-25T23:49:33.046Z,16.77
2023-05-25T23:52:00.034Z,16.35
2023-05-25T23:54:26.817Z,16.13
2023-05-25T23:56:53.849Z,17.15
2023-05-25T23:59:20.709Z,16.30
